Time;durP1;ratioP1;P1;durP2;ratioP2;P2;SDS_P1;SDS_P2;PMS_P1;PMS_P2;Temp;Humidity;BMP_temperature;BMP_pressure;BME280_temperature;BME280_humidity;BME280_pressure;Samples;Min_cycle;Max_cycle;Signal;HPM_P1;HPM_P2
2021/12/09 00:00:12;;;;;;;24.60;12.95;;;;;;;-9.55;89.60;99260.94;1612983;86;20910;-70
2021/12/09 00:02:45;;;;;;;22.52;11.75;;;;;;;-9.53;89.59;99260.57;1647870;85;20969;-69
2021/12/09 00:05:16;;;;;;;25.92;14.05;;;;;;;-9.50;89.55;99273.28;1638193;86;20933;-69
2021/12/09 00:07:43;;;;;;;23.98;13.43;;;;;;;-9.48;89.55;99273.77;1666823;84;20909;-69
2021/12/09 00:10:13;;;;;;;27.30;14.03;;;;;;;-9.50;89.46;99268.23;1615982;87;20961;-69
2021/12/09 00:12:40;;;;;;;28.77;14.78;;;;;;;-9.49;89.43;99258.59;1664959;84;21001;-70
2021/12/09 00:15:08;;;;;;;31.45;15.72;;;;;;;-9.49;89.46;99249.73;1648499;85;21289;-70
2021/12/09 00:17:34;;;;;;;;;;;;;;;-9.52;89.38;99249.63;1652373;85;21005;-70
2021/12/09 00:20:01;;;;;;;35.15;14.45;;;;;;;-9.53;89.33;99258.05;1696368;83;20452;-67
2021/12/09 00:22:28;;;;;;;29.20;15.28;;;;;;;-9.54;89.34;99251.29;1636780;86;20947;-68
2021/12/09 00:24:55;;;;;;;17.62;9.75;;;;;;;-9.54;89.39;99255.08;1648073;85;21067;-67
2021/12/09 00:27:21;;;;;;;28.40;12.37;;;;;;;-9.54;89.34;99252.55;1651181;86;21036;-68
2021/12/09 00:29:48;;;;;;;26.75;12.13;;;;;;;-9.53;89.35;99251.72;1649601;85;20898;-68
2021/12/09 00:32:16;;;;;;;32.23;14.40;;;;;;;-9.53;89.33;99240.35;1607257;87;25461;-68
2021/12/09 00:34:46;;;;;;;24.30;12.53;;;;;;;-9.51;89.41;99245.05;1635972;86;20982;-68
2021/12/09 00:37:23;;;;;;;28.25;14.25;;;;;;;-9.49;89.38;99242.16;1635427;87;21537;-67
2021/12/09 00:39:49;;;;;;;28.35;13.25;;;;;;;-9.47;89.43;99235.45;1646424;85;21079;-68
2021/12/09 00:42:17;;;;;;;26.37;12.78;;;;;;;-9.43;89.39;99229.66;1649484;85;21500;-67
2021/12/09 00:44:43;;;;;;;22.87;12.65;;;;;;;-9.36;89.52;99227.71;1695761;84;20914;-68
2021/12/09 00:47:10;;;;;;;22.30;12.45;;;;;;;-9.32;89.51;99228.25;1699641;83;21058;-68
2021/12/09 00:49:38;;;;;;;24.18;12.05;;;;;;;-9.29;89.39;99224.94;1695003;82;20918;-68
2021/12/09 00:52:05;;;;;;;22.13;11.85;;;;;;;-9.27;89.40;99226.69;1668564;84;21872;-67
2021/12/09 00:54:33;;;;;;;23.27;12.33;;;;;;;-9.24;89.34;99228.44;1698330;84;20921;-68
2021/12/09 00:57:00;;;;;;;21.90;11.20;;;;;;;-9.20;89.38;99225.56;1698826;83;20886;-68
2021/12/09 00:59:27;;;;;;;21.35;11.68;;;;;;;-9.16;89.30;99233.66;1651876;84;21465;-67
2021/12/09 01:01:53;;;;;;;24.07;11.95;;;;;;;-9.16;89.21;99231.13;1699413;84;20965;-68
2021/12/09 01:04:20;;;;;;;22.58;12.15;;;;;;;-9.17;89.19;99235.34;1634403;86;22027;-68
2021/12/09 01:06:49;;;;;;;26.68;13.05;;;;;;;-9.18;89.04;99243.75;1649901;86;21056;-68
2021/12/09 01:09:16;;;;;;;28.73;14.90;;;;;;;-9.22;88.95;99233.52;1646958;86;20993;-68
2021/12/09 01:11:43;;;;;;;25.43;13.98;;;;;;;-9.24;88.95;99236.03;1651136;85;21009;-68
2021/12/09 01:14:10;;;;;;;27.52;13.45;;;;;;;-9.25;89.05;99225.03;1650631;85;20985;-68
2021/12/09 01:16:37;;;;;;;24.10;13.28;;;;;;;-9.27;88.98;99226.69;1634379;85;21180;-68
2021/12/09 01:19:04;;;;;;;;;;;;;;;-9.29;88.84;99224.53;1655796;85;21520;-68
2021/12/09 01:21:31;;;;;;;21.90;12.10;;;;;;;-9.33;88.74;99235.78;1649951;85;20141;-68
2021/12/09 01:23:58;;;;;;;24.52;12.10;;;;;;;-9.38;88.73;99230.64;1614344;87;21396;-68
2021/12/09 01:26:27;;;;;;;19.47;9.87;;;;;;;-9.43;88.79;99230.92;1648285;85;21046;-68
2021/12/09 01:28:59;;;;;;;24.92;12.18;;;;;;;-9.45;88.71;99221.17;1625496;87;21349;-68
2021/12/09 01:31:31;;;;;;;25.23;13.08;;;;;;;-9.46;88.81;99214.42;1646890;85;21032;-68
2021/12/09 01:33:53;;;;;;;24.00;12.88;;;;;;;-9.48;88.78;99205.94;1643772;85;21013;-68
2021/12/09 01:36:20;;;;;;;28.02;14.45;;;;;;;-9.47;88.82;99203.84;1648035;85;21064;-69
2021/12/09 01:38:47;;;;;;;25.82;12.00;;;;;;;-9.49;88.75;99204.25;1652397;85;21328;-70
2021/12/09 01:41:14;;;;;;;28.07;14.65;;;;;;;-9.51;88.67;99201.66;1636499;86;21058;-70
2021/12/09 01:43:40;;;;;;;27.53;13.37;;;;;;;-9.54;88.64;99199.06;1654077;85;20952;-70
2021/12/09 01:46:12;;;;;;;28.77;14.03;;;;;;;-9.56;88.69;99202.38;1623165;86;20973;-69
2021/12/09 01:48:41;;;;;;;27.70;13.88;;;;;;;-9.58;88.68;99194.73;1602775;86;21524;-70
2021/12/09 01:51:08;;;;;;;24.30;11.63;;;;;;;-9.60;88.73;99190.48;1624477;86;20962;-70
2021/12/09 01:53:35;;;;;;;26.45;11.93;;;;;;;-9.58;88.71;99192.63;1625851;86;21065;-69
2021/12/09 01:56:05;;;;;;;;;;;;;;;-9.54;88.81;99188.11;1626188;86;20978;-70
2021/12/09 01:58:32;;;;;;;20.35;11.08;;;;;;;-9.51;88.82;99186.91;1629638;85;20449;-70
2021/12/09 02:00:58;;;;;;;20.77;12.28;;;;;;;-9.47;88.88;99188.69;1629357;86;20993;-70
2021/12/09 02:03:26;;;;;;;26.50;13.30;;;;;;;-9.47;88.88;99183.63;1620324;86;21029;-70
2021/12/09 02:05:54;;;;;;;25.97;13.03;;;;;;;-9.45;88.88;99184.53;1624030;86;21067;-70
2021/12/09 02:08:21;;;;;;;26.35;13.68;;;;;;;-9.46;88.80;99177.36;1625525;86;20996;-70
2021/12/09 02:10:49;;;;;;;25.30;13.45;;;;;;;-9.45;88.79;99185.80;1609715;86;21009;-70
2021/12/09 02:13:20;;;;;;;19.00;9.45;;;;;;;-9.47;88.70;99182.36;1584006;86;21595;-69
2021/12/09 02:15:47;;;;;;;30.48;13.62;;;;;;;-9.48;88.57;99178.14;1624873;86;21809;-69
2021/12/09 02:18:15;;;;;;;26.37;13.10;;;;;;;-9.49;88.59;99180.23;1624849;86;22649;-69
2021/12/09 02:20:42;;;;;;;22.87;12.70;;;;;;;-9.52;88.57;99176.34;1624304;86;20961;-70
2021/12/09 02:23:12;;;;;;;27.35;13.60;;;;;;;-9.52;88.57;99180.13;1622313;86;21485;-69
2021/12/09 02:25:44;;;;;;;20.00;10.18;;;;;;;-9.47;88.79;99164.67;1625876;86;21017;-70
2021/12/09 02:28:14;;;;;;;22.73;11.40;;;;;;;-9.43;88.74;99163.94;1621154;86;21009;-69
2021/12/09 02:30:41;;;;;;;18.98;10.55;;;;;;;-9.41;88.52;99160.17;1625256;85;22415;-70
2021/12/09 02:33:08;;;;;;;22.62;11.05;;;;;;;-9.37;88.55;99165.76;1622541;86;21025;-70
2021/12/09 02:35:36;;;;;;;21.37;12.15;;;;;;;-9.38;88.47;99172.49;1670834;84;20906;-70
2021/12/09 02:38:03;;;;;;;21.55;11.80;;;;;;;-9.41;88.42;99161.43;1664917;84;20969;-70
2021/12/09 02:40:33;;;;;;;21.17;11.35;;;;;;;-9.42;88.50;99155.53;1669509;84;21539;-70
2021/12/09 02:43:00;;;;;;;17.12;9.33;;;;;;;-9.40;88.51;99161.48;1671083;84;23514;-70
2021/12/09 02:45:27;;;;;;;20.00;11.10;;;;;;;-9.37;88.53;99146.38;1693335;83;21533;-68
2021/12/09 02:47:54;;;;;;;21.40;11.03;;;;;;;-9.33;88.55;99148.14;1699140;83;22174;-70
2021/12/09 02:50:21;;;;;;;18.00;10.30;;;;;;;-9.28;88.60;99136.47;1646569;85;21450;-70
2021/12/09 02:52:48;;;;;;;23.30;11.80;;;;;;;-9.18;88.62;99141.75;1651936;85;20973;-70
2021/12/09 02:55:15;;;;;;;18.95;9.70;;;;;;;-9.16;88.53;99142.62;1698991;83;21492;-70
2021/12/09 02:57:42;;;;;;;20.95;10.32;;;;;;;-9.14;88.48;99143.52;1682143;84;20895;-70
2021/12/09 03:00:11;;;;;;;17.73;10.07;;;;;;;-9.13;88.42;99147.36;1699004;83;21564;-70
2021/12/09 03:02:38;;;;;;;21.60;11.22;;;;;;;-9.12;88.33;99154.53;1649079;85;20902;-69
2021/12/09 03:05:08;;;;;;;;;;;;;;;-9.13;88.27;99150.27;1626769;87;21016;-69
2021/12/09 03:07:40;;;;;;;17.48;9.83;;;;;;;-9.14;88.26;99147.31;1698577;83;21018;-69
2021/12/09 03:10:23;;;;;;;23.95;10.53;;;;;;;-9.14;88.27;99148.58;1679936;83;20964;-69
2021/12/09 03:12:59;;;;;;;21.85;10.75;;;;;;;-9.11;88.43;99133.46;1678323;84;21032;-70
2021/12/09 03:15:26;;;;;;;29.75;10.05;;;;;;;-9.09;88.24;99126.77;1701543;83;21465;-70
2021/12/09 03:17:53;;;;;;;17.00;8.95;;;;;;;-9.10;88.15;99130.98;1697704;83;20963;-70
2021/12/09 03:20:21;;;;;;;19.15;10.20;;;;;;;-9.11;87.98;99133.46;1656355;84;22393;-69
2021/12/09 03:22:49;;;;;;;21.42;10.18;;;;;;;-9.14;87.96;99133.40;1698356;83;20918;-69
2021/12/09 03:25:18;;;;;;;27.80;10.82;;;;;;;-9.15;87.99;99125.37;1698751;83;20923;-70
2021/12/09 03:27:44;;;;;;;20.52;9.98;;;;;;;-9.15;87.96;99134.23;1700641;83;20929;-69
2021/12/09 03:30:16;;;;;;;16.60;10.07;;;;;;;-9.11;88.23;99128.41;1699777;83;21602;-68
2021/12/09 03:32:42;;;;;;;18.25;10.30;;;;;;;-9.08;88.15;99131.00;1700411;83;21890;-68
2021/12/09 03:35:12;;;;;;;16.40;9.33;;;;;;;-9.01;88.31;99136.65;1698455;83;20964;-68
2021/12/09 03:37:42;;;;;;;18.40;8.95;;;;;;;-8.93;88.22;99140.20;1697938;83;21058;-68
2021/12/09 03:40:11;;;;;;;17.12;9.50;;;;;;;-8.84;88.25;99134.05;1697690;83;20932;-67
2021/12/09 03:42:38;;;;;;;17.10;8.75;;;;;;;-8.74;88.24;99136.77;1697460;83;20921;-68
2021/12/09 03:45:07;;;;;;;18.73;9.05;;;;;;;-8.66;88.13;99127.66;1697314;84;21438;-68
2021/12/09 03:47:33;;;;;;;18.32;9.05;;;;;;;-8.56;88.29;99123.22;1692217;83;20913;-68
2021/12/09 03:50:01;;;;;;;16.87;8.05;;;;;;;-8.44;88.40;99117.12;1691635;83;20945;-68
2021/12/09 03:52:28;;;;;;;13.95;8.23;;;;;;;-8.31;88.34;99117.33;1690613;83;20975;-68
2021/12/09 03:54:56;;;;;;;15.98;8.98;;;;;;;-8.22;88.34;99122.56;1690158;83;21482;-68
2021/12/09 03:57:24;;;;;;;16.02;9.05;;;;;;;-8.14;88.41;99115.95;1690018;83;21153;-68
2021/12/09 03:59:51;;;;;;;12.68;7.80;;;;;;;-8.04;88.33;99107.66;1692653;83;20988;-68
2021/12/09 04:02:20;;;;;;;14.60;8.35;;;;;;;-7.99;88.12;99111.14;1692651;83;21750;-68
2021/12/09 04:04:46;;;;;;;13.93;9.03;;;;;;;-7.94;88.15;99114.61;1693114;84;21430;-68
2021/12/09 04:07:13;;;;;;;10.53;6.85;;;;;;;-7.90;87.87;99114.23;1691144;83;20949;-68
2021/12/09 04:09:40;;;;;;;13.10;8.23;;;;;;;-7.86;88.01;99108.83;1693880;83;21084;-68
2021/12/09 04:12:09;;;;;;;15.65;8.70;;;;;;;-7.83;88.04;99108.87;1693948;83;20977;-68
2021/12/09 04:14:37;;;;;;;15.93;9.03;;;;;;;-7.79;88.02;99120.75;1695057;83;20965;-68
2021/12/09 04:17:04;;;;;;;14.98;8.73;;;;;;;-7.77;87.94;99119.11;1693001;84;21488;-69
2021/12/09 04:19:31;;;;;;;;;;;;;;;-7.74;88.08;99121.69;1693692;83;21413;-68
2021/12/09 04:21:58;;;;;;;14.55;7.55;;;;;;;-7.71;87.96;99111.59;1692128;84;21190;-68
2021/12/09 04:24:24;;;;;;;17.85;9.43;;;;;;;-7.67;88.04;99108.30;1690723;83;20961;-68
2021/12/09 04:26:53;;;;;;;15.67;10.23;;;;;;;-7.64;88.08;99104.54;1691148;83;20949;-68
2021/12/09 04:29:20;;;;;;;18.40;10.60;;;;;;;-7.61;88.13;99094.45;1691208;84;21075;-68
2021/12/09 04:31:49;;;;;;;14.65;9.30;;;;;;;-7.56;88.17;99114.39;1692612;84;21063;-69
2021/12/09 04:34:16;;;;;;;16.20;10.13;;;;;;;-7.53;87.94;99111.05;1691550;83;21188;-68
2021/12/09 04:36:43;;;;;;;12.80;8.30;;;;;;;-7.50;88.14;99111.94;1693689;83;21893;-68
2021/12/09 04:39:10;;;;;;;18.87;9.90;;;;;;;-7.47;87.95;99103.11;1692646;83;20902;-68
2021/12/09 04:41:37;;;;;;;21.82;10.55;;;;;;;-7.46;88.04;99098.47;1691562;83;20953;-69
2021/12/09 04:44:05;;;;;;;19.17;9.73;;;;;;;-7.44;87.97;99096.81;1692212;83;20929;-68
2021/12/09 04:46:32;;;;;;;20.77;10.48;;;;;;;-7.44;87.86;99103.16;1669166;84;21066;-68
2021/12/09 04:49:00;;;;;;;17.00;9.10;;;;;;;-7.44;87.58;99103.16;1693718;84;20933;-68
2021/12/09 04:51:26;;;;;;;;;;;;;;;-7.46;87.62;99094.66;1693443;83;21028;-68
2021/12/09 04:53:53;;;;;;;21.00;10.98;;;;;;;-7.45;87.72;99090.44;1691529;83;20148;-68
2021/12/09 04:56:20;;;;;;;21.52;9.85;;;;;;;-7.46;87.72;99093.39;1692445;83;20956;-68
2021/12/09 04:58:47;;;;;;;22.33;11.63;;;;;;;-7.47;87.82;99101.84;1692525;83;21095;-69
2021/12/09 05:01:14;;;;;;;20.05;10.13;;;;;;;-7.52;87.90;99089.92;1693306;83;21536;-68
2021/12/09 05:03:44;;;;;;;17.52;9.30;;;;;;;-7.50;87.80;99096.73;1694555;83;26371;-68
2021/12/09 05:06:09;;;;;;;15.65;9.13;;;;;;;-7.54;87.64;99107.64;1692907;83;20926;-68
2021/12/09 05:08:38;;;;;;;15.70;8.80;;;;;;;-7.59;87.46;99114.31;1689996;84;20874;-68
2021/12/09 05:11:12;;;;;;;13.58;8.25;;;;;;;-7.64;87.58;99113.41;1676812;84;21031;-68
2021/12/09 05:13:39;;;;;;;17.85;9.38;;;;;;;-7.70;87.50;99108.22;1689687;83;20988;-68
2021/12/09 05:16:09;;;;;;;16.52;9.13;;;;;;;-7.76;87.36;99108.97;1691431;83;20926;-68
2021/12/09 05:18:39;;;;;;;18.30;9.03;;;;;;;-7.80;87.49;99101.32;1691281;84;20953;-68
2021/12/09 05:21:08;;;;;;;14.70;9.60;;;;;;;-7.82;87.59;99103.81;1672071;84;20909;-68
2021/12/09 05:23:36;;;;;;;18.25;9.13;;;;;;;-7.89;87.50;99106.67;1665434;84;21838;-68
2021/12/09 05:26:03;;;;;;;14.85;9.35;;;;;;;-7.94;87.39;99110.80;1692009;83;20922;-68
2021/12/09 05:28:36;;;;;;;;;;;;;;;-7.99;87.40;99121.27;1696358;83;21054;-68
2021/12/09 05:33:48;;;;;;;16.23;9.25;;;;;;;-8.05;87.51;99105.97;1690300;83;21466;-68
2021/12/09 05:36:17;;;;;;;14.47;8.15;;;;;;;-8.08;87.54;99110.98;1693594;84;21043;-68
2021/12/09 05:38:44;;;;;;;17.62;9.83;;;;;;;-8.05;87.55;99109.77;1690232;84;20910;-68
2021/12/09 05:41:11;;;;;;;15.72;9.88;;;;;;;-8.01;87.66;99105.22;1652308;84;23604;-68
2021/12/09 05:43:38;;;;;;;18.23;9.10;;;;;;;-7.94;87.83;99115.88;1692791;83;21036;-68
2021/12/09 05:46:05;;;;;;;20.92;10.25;;;;;;;-7.85;87.87;99110.52;1672004;84;20933;-68
2021/12/09 05:48:32;;;;;;;15.25;9.58;;;;;;;-7.79;87.83;99115.69;1694953;83;21059;-68
2021/12/09 05:50:59;;;;;;;15.98;8.98;;;;;;;-7.72;87.79;99123.84;1644885;84;20985;-68
2021/12/09 05:53:26;;;;;;;16.23;10.77;;;;;;;-7.68;87.79;99126.85;1617043;87;20956;-68
2021/12/09 05:55:53;;;;;;;18.77;10.43;;;;;;;-7.64;87.79;99127.36;1658541;84;20925;-69
2021/12/09 05:58:23;;;;;;;16.62;9.25;;;;;;;-7.60;87.72;99115.16;1694370;83;21424;-68
2021/12/09 06:00:52;;;;;;;15.20;10.18;;;;;;;-7.54;87.77;99111.86;1679490;84;21857;-68
2021/12/09 06:03:21;;;;;;;16.27;8.75;;;;;;;-7.49;87.82;99106.45;1651353;85;20973;-68
2021/12/09 06:05:50;;;;;;;16.42;8.50;;;;;;;-7.47;87.75;99108.18;1652620;85;20969;-68
2021/12/09 06:08:17;;;;;;;19.17;10.25;;;;;;;-7.43;87.68;99121.33;1650323;85;20891;-68
2021/12/09 06:10:44;;;;;;;17.77;10.50;;;;;;;-7.39;87.80;99114.64;1649228;85;21005;-68
2021/12/09 06:13:11;;;;;;;17.85;10.28;;;;;;;-7.34;87.81;99107.08;1654185;85;21956;-68
2021/12/09 06:15:38;;;;;;;16.30;9.13;;;;;;;-7.29;87.95;99106.73;1693623;83;21492;-68
2021/12/09 06:18:05;;;;;;;;;;;;;;;-7.25;87.75;99098.36;1696305;84;20973;-68
2021/12/09 06:20:32;;;;;;;20.72;9.38;;;;;;;-7.24;87.72;99108.93;1625817;84;20092;-68
2021/12/09 06:22:59;;;;;;;14.43;7.37;;;;;;;-7.24;87.63;99108.93;1630272;86;21033;-80
2021/12/09 06:25:26;;;;;;;16.97;9.48;;;;;;;-7.23;87.65;99109.35;1630069;86;21043;-81
2021/12/09 06:31:20;;;;;;;13.32;7.33;;;;;;;-7.21;87.66;99101.36;1616502;87;21574;-77
2021/12/09 06:33:45;;;;;;;16.62;9.48;;;;;;;-7.19;87.70;99107.31;1616490;87;20963;-75
2021/12/09 06:36:15;;;;;;;16.05;8.90;;;;;;;-7.16;87.66;99107.36;1616833;87;21003;-77
2021/12/09 06:38:42;;;;;;;16.95;9.23;;;;;;;-7.15;87.62;99103.98;1620365;87;21060;-77
2021/12/09 06:41:09;;;;;;;20.62;10.18;;;;;;;-7.14;87.71;99098.09;1618246;87;21399;-77
2021/12/09 06:43:40;;;;;;;;;;;;;;;-7.12;87.73;99106.55;1620961;87;21006;-78
2021/12/09 06:46:13;;;;;;;13.68;7.47;;;;;;;-7.10;87.76;99106.16;1622478;86;20520;-77
2021/12/09 06:48:56;;;;;;;19.65;11.20;;;;;;;-7.09;87.52;99086.29;1625597;86;21062;-77
2021/12/09 06:51:54;;;;;;;19.25;10.32;;;;;;;-7.10;87.57;99086.29;1621492;87;21108;-78
2021/12/09 06:54:20;;;;;;;25.55;11.73;;;;;;;-7.12;87.45;99098.94;1622376;87;21917;-77
2021/12/09 06:56:47;;;;;;;22.25;11.35;;;;;;;-7.12;87.46;99102.75;1641388;85;20954;-77
2021/12/09 06:59:14;;;;;;;26.37;13.97;;;;;;;-7.12;87.55;99098.94;1639254;85;21946;-77
2021/12/09 07:01:41;;;;;;;28.77;13.32;;;;;;;-7.13;87.49;99094.70;1628162;87;20986;-76
2021/12/09 07:04:08;;;;;;;23.63;12.53;;;;;;;-7.12;87.52;99096.40;1647317;86;21045;-77
2021/12/09 07:06:40;;;;;;;23.87;11.25;;;;;;;-7.12;87.58;99096.40;1654403;85;21901;-77
2021/12/09 07:09:07;;;;;;;19.50;11.70;;;;;;;-7.13;87.54;99083.29;1649497;85;20906;-80
2021/12/09 07:11:33;;;;;;;20.37;12.70;;;;;;;-7.15;87.57;99078.60;1649084;85;21481;-77
2021/12/09 07:14:01;;;;;;;18.87;9.18;;;;;;;-7.15;87.59;99094.25;1700653;82;20943;-78
2021/12/09 07:16:28;;;;;;;23.15;12.55;;;;;;;-7.17;87.38;99089.56;1699682;82;21117;-77
2021/12/09 07:18:55;;;;;;;25.43;11.50;;;;;;;-7.15;87.57;99092.98;1700985;82;20874;-78
2021/12/09 07:21:21;;;;;;;16.00;9.30;;;;;;;-7.14;87.66;99085.41;1698756;82;20989;-77
2021/12/09 07:23:49;;;;;;;22.02;10.80;;;;;;;-7.10;87.63;99083.75;1699669;83;21002;-77
2021/12/09 07:26:15;;;;;;;24.15;10.15;;;;;;;-7.08;87.75;99095.63;1699567;82;26318;-77
2021/12/09 07:28:42;;;;;;;26.62;10.15;;;;;;;-7.05;87.73;99098.20;1697113;83;21485;-77
2021/12/09 07:31:09;;;;;;;16.80;10.00;;;;;;;-7.02;87.65;99089.36;1699132;84;20993;-77
2021/12/09 07:33:35;;;;;;;29.13;14.60;;;;;;;-6.98;87.70;99077.13;1696479;83;21498;-78
2021/12/09 07:36:04;;;;;;;26.70;12.27;;;;;;;-6.90;87.76;99091.61;1696743;83;20937;-77
2021/12/09 07:38:33;;;;;;;25.77;11.73;;;;;;;-6.82;87.88;99092.56;1705616;83;21072;-77
2021/12/09 07:41:00;;;;;;;25.85;14.55;;;;;;;-6.75;87.65;99084.17;1699345;83;21063;-79
2021/12/09 07:43:32;;;;;;;26.50;12.15;;;;;;;-6.70;87.67;99076.63;1695073;82;20956;-76
2021/12/09 07:45:59;;;;;;;30.08;12.40;;;;;;;-6.66;87.51;99088.53;1637534;86;21013;-77
2021/12/09 07:48:26;;;;;;;24.95;14.43;;;;;;;-6.63;87.58;99089.41;1647439;85;20946;-77
2021/12/09 07:50:53;;;;;;;26.37;12.98;;;;;;;-6.61;87.66;99077.59;1645134;85;21037;-83
2021/12/09 07:53:22;;;;;;;30.67;13.87;;;;;;;-6.59;87.46;99068.28;1638725;86;21827;-77
2021/12/09 07:55:49;;;;;;;27.75;12.98;;;;;;;-6.59;87.44;99060.66;1634006;86;20997;-77
2021/12/09 07:58:16;;;;;;;;;;;;;;;-6.58;87.40;99057.31;1653194;85;20945;-77
2021/12/09 08:00:43;;;;;;;24.72;12.55;;;;;;;-6.58;87.39;99062.39;1651651;85;20119;-79
2021/12/09 08:03:24;;;;;;;21.87;12.90;;;;;;;-6.58;87.28;99067.47;1651327;85;21009;-76
2021/12/09 08:05:57;;;;;;;21.93;13.43;;;;;;;-6.57;87.46;99064.08;1646797;85;21066;-75
2021/12/09 08:08:23;;;;;;;21.02;10.20;;;;;;;-6.54;87.54;99066.65;1648424;85;20973;-76
2021/12/09 08:10:50;;;;;;;13.77;8.20;;;;;;;-6.57;87.25;99071.70;1652799;85;20964;-75
2021/12/09 08:13:16;;;;;;;22.73;12.43;;;;;;;-6.64;87.18;99072.45;1646723;86;20973;-76
2021/12/09 08:15:49;;;;;;;20.03;9.77;;;;;;;-6.70;87.09;99079.16;1652433;85;20977;-76
2021/12/09 08:20:49;;;;;;;23.20;13.05;;;;;;;-6.79;87.12;99083.71;1648414;85;20978;-74
2021/12/09 08:23:16;;;;;;;23.25;12.85;;;;;;;-6.81;87.31;99086.64;1651496;85;20941;-77
2021/12/09 08:25:44;;;;;;;22.95;12.37;;;;;;;-6.78;87.48;99089.22;1650490;85;26408;-73
2021/12/09 08:28:13;;;;;;;18.20;10.40;;;;;;;-6.71;87.47;99082.12;1626924;86;21029;-75
2021/12/09 08:30:41;;;;;;;26.17;13.62;;;;;;;-6.65;87.47;99091.07;1650435;84;21983;-75
2021/12/09 08:33:08;;;;;;;;;;;;;;;-6.63;87.44;99086.87;1699537;82;20928;-73
2021/12/09 08:35:37;;;;;;;22.85;12.82;;;;;;;-6.62;87.29;99082.22;1696664;83;22653;-76
2021/12/09 08:38:11;;;;;;;22.27;12.93;;;;;;;-6.64;87.27;99077.95;1696609;83;21907;-75
2021/12/09 08:40:39;;;;;;;28.17;13.22;;;;;;;-6.68;87.33;99078.34;1674567;83;21347;-77
2021/12/09 08:43:06;;;;;;;24.92;13.38;;;;;;;-6.71;87.33;99065.62;1699458;82;21679;-76
2021/12/09 08:45:36;;;;;;;23.37;12.03;;;;;;;-6.74;87.33;99069.81;1656289;82;21476;-73
2021/12/09 08:48:08;;;;;;;25.82;12.93;;;;;;;-6.79;87.40;99067.21;1701993;82;21868;-77
2021/12/09 08:50:36;;;;;;;20.50;11.53;;;;;;;-6.81;87.49;99079.03;1693571;83;21472;-80
2021/12/09 08:53:08;;;;;;;21.90;13.35;;;;;;;-6.82;87.57;99073.10;1696585;82;20911;-77
2021/12/09 08:55:35;;;;;;;24.95;14.43;;;;;;;-6.80;87.68;99078.22;1693951;83;21037;-82
2021/12/09 08:58:05;;;;;;;20.55;12.15;;;;;;;-6.69;87.88;99075.77;1695218;83;21000;-77
2021/12/09 09:00:39;;;;;;;25.88;14.18;;;;;;;-6.55;88.16;99071.30;1697020;83;20904;-76
2021/12/09 09:03:07;;;;;;;24.90;13.60;;;;;;;-6.34;88.23;99067.27;1699436;82;20940;-77
2021/12/09 09:05:36;;;;;;;30.30;16.32;;;;;;;-6.17;88.16;99054.30;1697922;82;20965;-77
2021/12/09 09:08:06;;;;;;;25.02;15.40;;;;;;;-6.04;88.04;99063.33;1640388;85;21963;-78
2021/12/09 09:10:38;;;;;;;29.10;16.20;;;;;;;-5.97;87.88;99063.80;1634485;85;21064;-77
2021/12/09 09:13:07;;;;;;;28.07;15.32;;;;;;;-5.90;87.88;99052.83;1668715;84;21514;-80
2021/12/09 09:15:36;;;;;;;26.30;15.15;;;;;;;-5.88;87.63;99038.41;1675048;84;20937;-80
2021/12/09 09:18:07;;;;;;;28.65;15.00;;;;;;;-5.90;87.68;99040.95;1654245;84;20993;-76
2021/12/09 09:20:39;;;;;;;28.38;15.50;;;;;;;-5.84;87.76;99040.16;1665335;84;21582;-80
2021/12/09 09:23:11;;;;;;;28.23;16.50;;;;;;;-5.86;87.67;99026.57;1675080;84;20929;-78
2021/12/09 09:25:38;;;;;;;28.02;16.05;;;;;;;-5.88;87.82;99018.07;1696730;83;20965;-77
2021/12/09 09:28:11;;;;;;;24.50;11.48;;;;;;;-5.91;87.66;99002.80;1700859;82;21061;-77
2021/12/09 09:30:48;;;;;;;30.45;17.10;;;;;;;-5.96;87.61;99000.70;1664669;84;21008;-76
2021/12/09 09:33:15;;;;;;;27.20;14.93;;;;;;;-6.01;87.72;99007.44;1700412;82;21043;-81
2021/12/09 09:35:44;;;;;;;27.40;14.98;;;;;;;-6.06;87.76;99002.73;1699015;82;20917;-79
2021/12/09 09:38:17;;;;;;;22.90;14.18;;;;;;;-6.09;87.86;99009.48;1699034;82;20930;-81
2021/12/09 09:40:51;;;;;;;29.67;15.48;;;;;;;-6.07;87.96;99017.56;1702000;82;20965;-78
2021/12/09 09:43:29;;;;;;;32.90;16.85;;;;;;;-6.06;87.98;99028.14;1701400;82;20977;-79
2021/12/09 09:45:59;;;;;;;29.55;17.20;;;;;;;-6.06;88.02;99038.31;1700007;83;21733;-78
2021/12/09 09:48:26;;;;;;;37.03;21.65;;;;;;;-5.97;88.25;99028.21;1698007;83;20909;-79
2021/12/09 09:50:53;;;;;;;29.48;17.02;;;;;;;-5.90;88.27;99027.40;1700828;83;20913;-79
2021/12/09 09:53:22;;;;;;;21.65;12.43;;;;;;;-5.81;88.31;99019.83;1638934;85;21013;-74
2021/12/09 09:55:49;;;;;;;27.77;14.93;;;;;;;-5.74;88.21;99011.81;1680225;83;21004;-73
2021/12/09 09:58:18;;;;;;;27.55;15.38;;;;;;;-5.70;88.21;99025.84;1679483;83;20988;-73
2021/12/09 10:00:45;;;;;;;27.02;16.50;;;;;;;-5.66;88.23;99021.22;1699945;83;20937;-75
2021/12/09 10:03:17;;;;;;;31.80;19.17;;;;;;;-5.58;88.22;98997.09;1700640;83;20948;-75
2021/12/09 10:05:46;;;;;;;18.27;11.35;;;;;;;-5.50;88.23;98997.14;1673649;84;20980;-82
2021/12/09 10:08:16;;;;;;;25.40;14.93;;;;;;;-5.41;88.11;99003.11;1675785;84;20967;-75
2021/12/09 10:10:45;;;;;;;30.37;17.10;;;;;;;-5.38;88.00;99002.28;1644442;85;21126;-74
2021/12/09 10:13:15;;;;;;;49.53;28.62;;;;;;;-5.37;88.00;99014.17;1644669;86;20920;-74
2021/12/09 10:15:51;;;;;;;43.52;25.20;;;;;;;-5.29;88.34;99027.80;1638372;86;20966;-76
2021/12/09 10:18:42;;;;;;;32.90;19.17;;;;;;;-5.12;88.46;99034.67;1674375;84;20967;-76
2021/12/09 10:21:32;;;;;;;31.05;17.10;;;;;;;-5.10;88.22;99023.62;1626592;87;21004;-75
2021/12/09 10:24:07;;;;;;;22.80;12.20;;;;;;;-5.01;88.18;99014.77;1647126;85;21488;-75
2021/12/09 10:26:44;;;;;;;20.52;10.18;;;;;;;-4.98;87.93;99011.39;1663009;84;21932;-75
2021/12/09 10:29:44;;;;;;;36.35;21.57;;;;;;;-4.99;87.79;99008.39;1677967;84;25522;-79
2021/12/09 10:32:14;;;;;;;39.78;24.07;;;;;;;-5.01;88.00;99038.11;1697279;82;21008;-72
2021/12/09 10:34:45;;;;;;;32.67;20.12;;;;;;;-4.85;88.60;99023.30;1698003;83;20953;-71
2021/12/09 10:37:31;;;;;;;28.92;17.92;;;;;;;-4.71;88.33;99014.42;1697847;83;21069;-71
2021/12/09 10:40:03;;;;;;;27.60;18.40;;;;;;;-4.63;88.29;99014.45;1699117;83;20878;-72
2021/12/09 10:42:37;;;;;;;33.45;19.35;;;;;;;-4.59;88.18;99022.55;1644124;86;20938;-76
2021/12/09 10:45:09;;;;;;;29.72;19.67;;;;;;;-4.46;88.41;99028.08;1641558;85;21042;-73
2021/12/09 10:47:58;;;;;;;31.68;21.00;;;;;;;-4.32;88.46;99023.00;1636491;85;20971;-72
2021/12/09 10:50:53;;;;;;;28.00;18.40;;;;;;;-4.22;88.35;99018.78;1637698;85;21822;-71
2021/12/09 10:55:56;;;;;;;31.25;18.10;;;;;;;-4.44;87.99;99002.61;1616791;88;21027;-73
2021/12/09 10:58:26;;;;;;;;;;;;;;;-4.47;88.01;99004.73;1618176;86;20984;-73
2021/12/09 11:01:00;;;;;;;32.55;22.00;;;;;;;-4.52;88.03;98992.40;1618222;88;20097;-71
2021/12/09 11:03:44;;;;;;;33.98;20.68;;;;;;;-4.53;88.42;98997.08;1618362;88;21303;-73
2021/12/09 11:06:18;;;;;;;32.28;20.52;;;;;;;-4.53;88.14;98990.70;1624402;86;21447;-74
2021/12/09 11:09:00;;;;;;;33.55;21.17;;;;;;;-4.62;88.06;98981.36;1623793;87;21548;-74
2021/12/09 11:11:35;;;;;;;33.63;19.32;;;;;;;-4.67;88.14;98987.28;1613331;86;20962;-76
2021/12/09 11:14:17;;;;;;;32.70;18.73;;;;;;;-4.72;88.28;98972.83;1629429;87;20954;-79
2021/12/09 11:16:50;;;;;;;31.10;18.92;;;;;;;-4.70;88.48;98964.33;1610934;87;21848;-75
2021/12/09 11:19:34;;;;;;;30.32;19.20;;;;;;;-4.72;88.41;98952.88;1626749;86;20897;-75
2021/12/09 11:21:58;;;;;;;34.38;20.75;;;;;;;-4.76;88.47;98966.05;1628408;86;21037;-75
2021/12/09 11:24:34;;;;;;;36.13;21.55;;;;;;;-4.77;88.59;98970.69;1625623;87;20976;-75
2021/12/09 11:27:11;;;;;;;29.48;17.60;;;;;;;-4.82;88.53;98967.28;1622938;86;21037;-75
2021/12/09 11:29:47;;;;;;;30.00;16.75;;;;;;;-4.83;88.65;98966.86;1613345;87;21267;-75
2021/12/09 11:32:26;;;;;;;26.07;17.92;;;;;;;-4.83;88.74;98951.58;1612239;86;21078;-76
2021/12/09 11:35:09;;;;;;;35.00;18.07;;;;;;;-4.87;88.76;98958.80;1627786;86;21500;-77
2021/12/09 11:40:34;;;;;;;24.15;13.35;;;;;;;-4.93;88.78;98939.66;1629129;87;21501;-75
2021/12/09 11:43:01;;;;;;;38.50;22.93;;;;;;;-4.95;88.80;98949.86;1623542;87;21074;-77
2021/12/09 11:45:35;;;;;;;32.85;21.95;;;;;;;-4.99;88.79;98970.20;1586869;87;21044;-77